Terminal Aerodrome Forecast
Issued by NWS

Home | Current Version | Previous Version | Text Only | Print | Product List | Glossary On
Versions: 1 2 3 4 5 6 7 8 9 10 11 12 13 14 15 16 17 18 19 20 21 22 23 24 25
000
FTUS41 KRLX 250500
TAFCKB
TAF
KCKB 250520Z 2506/2606 VRB03KT P6SM SCT120
     FM251300 15007KT P6SM BKN060
     FM251500 17010G15KT 5SM -SHRA OVC035
     FM251800 19009G15KT 3SM -SHRA VCTS OVC025CB
     FM252100 23010G20KT 5SM -SHRA VCTS BKN030CB
     FM260300 27010G15KT P6SM BKN012=

USA.gov is the U.S. government's official web portal to all federal, state and local government web resources and services.